Aérodrome :
LOGIN :

S'inscrire | Disclaimer

   EN    FR    IT 

 










Légende :    VFR   VFR Marginal   IFR   IFR Intensif   IFR Très Intensif
Visi : 
Plafond : 
>= 8 km
>= 3000ft
5 à 8 km
1000 à 3000 ft
1500m à 5 km
500 à 1000 ft
800 à 1500m
200 à 500 ft
< 800m
< 200 ft
Symboles :   Orages  Brouillard  Fortes neiges  Fortes précipitations  Vent > 20 kt
SIGMETs :   Divers  Orages  Givrage  Turbulence  Onde Orograph.  Cendres Volcan.






- Altitude de l'aérodrome : 286 ft
- Code IATA : FFD


EGVA - RAF Fairford

DERNIER METAR :
  • 182156Z AUTO 26013KT 9999 CLR 04/02 A2999 RMK AO2 SLP162 T00400024 $

METARs EXPIRÉS :
  • 182056Z AUTO 28011G21KT 9999 FEW015 SCT028 SCT041 BKN090 05/03 A2997 RMK AO2 PK WND 27026/25 RAB19E43 SLP155 P0002 60002 T00510031 53009 $
  • 182053Z AUTO 28012G21KT 9999 FEW015 SCT028 BKN041 BKN090 05/03 A2996 RMK AO2 RAB19E43 SLP152 $
  • 182043Z AUTO 29013KT 9999 FEW018 BKN028 BKN032 BKN041 05/03 A2996 RMK AO2 RAB19E43 SLP152 $
  • 182029Z AUTO 28013G22KT 9999 RA SCT018 BKN028 BKN034 BKN042 06/04 A2995 RMK AO2 RAB19 CIG 026V038 CIG 021 RWY09 SLP148 $
  • 182019Z AUTO 27017G22KT 9999 -RA FEW027 BKN038 BKN048 06/04 A2994 RMK AO2 RAB19 SLP145 $
  • 181956Z AUTO 26015KT 9999 BKN043 OVC050 07/04 A2994 RMK AO2 SLP145 T00650042 $
  • 181951Z AUTO 25016KT 9999 SCT039 BKN050 07/04 A2994 RMK AO2 SLP145 $

Prévision TAF périmée.



MET'MAP, la Météo Aéronautique d'un coup d'oeil ! - Copyright ORBIFLY Décembre 2007 - Disclaimer

ORBIFLY MET'MAP TEAM :

Programmation & Développement : Alexandra Zaïnal
Sur une idée originale de : Baudouin d'Aumeries
Assistance à la programmation : Marc-Olivier Méhu
Soutien technique & logistique : Manuel Goepfert

Contact : metmap@orbifly.com




SOURCES & CREDITS :

   NOAA